createdAt,value
2023-03-10T00:01:25.594Z,76.93
2023-03-10T00:03:56.290Z,76.49
2023-03-10T00:06:28.127Z,77.65
2023-03-10T00:08:56.366Z,78.69
2023-03-10T00:11:24.288Z,79.09
2023-03-10T00:13:52.184Z,79.24
2023-03-10T00:16:27.490Z,79.50
2023-03-10T00:18:55.634Z,80.30
2023-03-10T00:21:30.011Z,79.46
2023-03-10T00:23:58.808Z,80.46
2023-03-10T00:26:30.350Z,79.81
2023-03-10T00:28:58.036Z,80.31
2023-03-10T00:31:31.317Z,80.72
2023-03-10T00:33:59.723Z,82.15
2023-03-10T00:36:29.899Z,81.85
2023-03-10T00:39:00.860Z,81.75
2023-03-10T00:41:36.477Z,82.39
2023-03-10T00:44:04.669Z,81.41
2023-03-10T00:46:34.356Z,81.90
2023-03-10T00:49:02.001Z,82.38
2023-03-10T00:51:29.724Z,81.88
2023-03-10T00:53:57.230Z,80.97
2023-03-10T00:56:26.846Z,81.60
2023-03-10T00:59:00.219Z,82.07
2023-03-10T01:01:30.933Z,82.55
2023-03-10T01:04:05.448Z,83.95
2023-03-10T01:06:36.710Z,83.85
2023-03-10T01:09:06.175Z,83.75
2023-03-10T01:11:35.538Z,83.14
2023-03-10T01:14:06.163Z,83.30
2023-03-10T01:16:33.956Z,83.04
2023-03-10T01:19:01.961Z,83.20
2023-03-10T01:21:35.741Z,83.77
2023-03-10T01:24:05.198Z,84.21
2023-03-10T01:26:32.828Z,83.49
2023-03-10T01:29:00.509Z,83.71
2023-03-10T01:31:28.332Z,83.91
2023-03-10T01:33:57.125Z,84.14
2023-03-10T01:36:28.434Z,83.95
2023-03-10T01:38:57.658Z,83.90
2023-03-10T01:41:25.835Z,84.38
2023-03-10T01:43:56.515Z,85.00
2023-03-10T01:46:41.559Z,85.78
2023-03-10T01:49:45.170Z,85.79
2023-03-10T01:52:22.223Z,84.63
2023-03-10T01:55:12.563Z,84.46
2023-03-10T01:57:52.656Z,84.77
2023-03-10T02:00:21.807Z,85.41
2023-03-10T02:02:54.583Z,85.54
2023-03-10T02:05:22.930Z,85.25
2023-03-10T02:07:51.579Z,84.66
2023-03-10T02:10:21.938Z,85.12
2023-03-10T02:12:52.763Z,85.10
2023-03-10T02:15:21.210Z,85.50
2023-03-10T02:17:51.869Z,84.95
2023-03-10T02:20:22.261Z,85.58
2023-03-10T02:22:50.961Z,86.26
2023-03-10T02:25:39.026Z,85.77
2023-03-10T02:28:06.893Z,86.52
2023-03-10T02:30:54.199Z,86.70
2023-03-10T02:33:30.418Z,86.56
2023-03-10T02:36:18.296Z,85.98
2023-03-10T02:38:46.494Z,85.80
2023-03-10T02:41:37.154Z,85.93
2023-03-10T02:44:12.079Z,85.70
2023-03-10T02:46:39.703Z,85.43
2023-03-10T02:49:10.857Z,85.49
2023-03-10T02:51:47.821Z,85.92
2023-03-10T02:54:18.153Z,86.21
2023-03-10T02:56:45.973Z,86.31
2023-03-10T02:59:16.358Z,86.49
2023-03-10T03:01:48.712Z,86.75
2023-03-10T03:04:18.904Z,86.52
2023-03-10T03:06:48.790Z,86.48
2023-03-10T03:09:16.472Z,86.10
2023-03-10T03:11:46.094Z,86.04
2023-03-10T03:14:14.213Z,83.33
2023-03-10T03:16:41.779Z,84.25
2023-03-10T03:19:11.420Z,84.76
2023-03-10T03:21:40.290Z,85.74
2023-03-10T03:24:08.053Z,85.56
2023-03-10T03:26:35.676Z,85.54
2023-03-10T03:29:12.139Z,84.50
2023-03-10T03:31:41.337Z,84.95
2023-03-10T03:34:16.754Z,86.51
2023-03-10T03:36:46.222Z,87.38
2023-03-10T03:39:17.687Z,87.24
2023-03-10T03:41:53.306Z,87.97
2023-03-10T03:44:21.677Z,88.54
2023-03-10T03:46:50.440Z,88.25
2023-03-10T03:49:18.569Z,89.03
2023-03-10T03:51:46.832Z,89.10
2023-03-10T03:54:14.421Z,89.57
2023-03-10T03:56:42.250Z,88.77
2023-03-10T03:59:12.022Z,88.39
2023-03-10T04:01:42.598Z,87.91
2023-03-10T04:04:10.169Z,87.64
2023-03-10T04:06:39.120Z,87.22
2023-03-10T04:09:10.521Z,86.47
2023-03-10T04:11:39.051Z,86.29
2023-03-10T04:14:06.786Z,86.49
2023-03-10T04:16:34.852Z,87.31
2023-03-10T04:19:07.638Z,86.20
2023-03-10T04:21:37.731Z,85.89
2023-03-10T04:24:06.092Z,86.79
2023-03-10T04:26:36.388Z,87.50
2023-03-10T04:29:05.292Z,88.62
2023-03-10T04:31:35.207Z,86.49
2023-03-10T04:34:03.919Z,86.31
2023-03-10T04:36:32.630Z,86.44
2023-03-10T04:39:02.525Z,85.07
2023-03-10T04:41:32.219Z,87.30
2023-03-10T04:43:59.923Z,88.61
2023-03-10T04:46:28.570Z,89.65
2023-03-10T04:48:57.336Z,90.79
2023-03-10T04:51:25.391Z,91.42
2023-03-10T04:53:55.195Z,90.77
2023-03-10T04:56:22.842Z,88.02
2023-03-10T04:58:50.355Z,86.29
2023-03-10T05:01:18.093Z,86.76
2023-03-10T05:03:50.072Z,85.75
2023-03-10T05:06:22.658Z,86.75
2023-03-10T05:09:01.022Z,88.19
2023-03-10T05:11:29.921Z,89.91
2023-03-10T05:13:57.641Z,90.05
2023-03-10T05:16:28.262Z,84.33
2023-03-10T05:18:55.824Z,84.56
2023-03-10T05:21:27.325Z,87.02
2023-03-10T05:23:56.808Z,89.34
2023-03-10T05:26:32.059Z,91.31
2023-03-10T05:29:01.073Z,92.28
2023-03-10T05:31:40.426Z,90.55
2023-03-10T05:34:14.220Z,91.85
2023-03-10T05:36:45.169Z,89.69
2023-03-10T05:39:13.262Z,89.56
2023-03-10T05:41:45.328Z,91.25
2023-03-10T05:44:13.189Z,87.38
2023-03-10T05:46:41.604Z,90.46
2023-03-10T05:49:09.225Z,91.38
2023-03-10T05:51:36.730Z,92.82
2023-03-10T05:54:06.364Z,93.48
2023-03-10T05:56:34.356Z,94.53
2023-03-10T05:59:04.043Z,94.26
2023-03-10T06:01:34.847Z,94.55
2023-03-10T06:04:02.420Z,93.51
2023-03-10T06:06:30.393Z,91.03
2023-03-10T06:08:58.576Z,90.41
2023-03-10T06:11:26.146Z,90.30
2023-03-10T06:13:54.016Z,89.96
2023-03-10T06:16:21.627Z,89.08
2023-03-10T06:18:54.649Z,87.60
2023-03-10T06:21:22.822Z,88.21
2023-03-10T06:23:50.447Z,88.32
2023-03-10T06:26:18.631Z,87.82
2023-03-10T06:28:47.533Z,87.72
2023-03-10T06:31:19.807Z,86.58
2023-03-10T06:33:47.816Z,86.08
2023-03-10T06:36:17.038Z,84.60
2023-03-10T06:38:45.276Z,83.40
2023-03-10T06:41:13.530Z,83.25
2023-03-10T06:43:41.263Z,83.08
2023-03-10T06:46:11.043Z,83.48
2023-03-10T06:48:40.963Z,83.32
2023-03-10T06:51:13.281Z,82.60
2023-03-10T06:53:40.943Z,82.38
2023-03-10T06:56:15.271Z,83.35
2023-03-10T06:58:43.166Z,84.04
2023-03-10T07:01:26.808Z,83.60
2023-03-10T07:03:55.212Z,83.13
2023-03-10T07:06:23.846Z,83.27
2023-03-10T07:08:52.830Z,82.78
2023-03-10T07:11:22.786Z,82.95
2023-03-10T07:13:50.631Z,83.20
2023-03-10T07:16:18.573Z,82.99
2023-03-10T07:18:46.246Z,79.98
2023-03-10T07:21:20.134Z,77.25
2023-03-10T07:23:48.375Z,77.97
2023-03-10T07:26:18.972Z,80.59
2023-03-10T07:28:47.485Z,78.97
2023-03-10T07:31:16.404Z,77.20
2023-03-10T07:33:44.231Z,78.26
2023-03-10T07:36:16.027Z,75.05
2023-03-10T07:38:43.887Z,75.63
2023-03-10T07:41:18.344Z,77.03
2023-03-10T07:43:46.924Z,76.99
2023-03-10T07:46:19.526Z,75.42
2023-03-10T07:48:47.656Z,75.75
2023-03-10T07:51:18.262Z,75.66
2023-03-10T07:53:46.157Z,74.59
2023-03-10T07:56:15.869Z,74.18
2023-03-10T07:58:43.703Z,73.41
2023-03-10T08:01:20.582Z,73.29
2023-03-10T08:03:48.840Z,71.71
2023-03-10T08:06:22.893Z,69.03
2023-03-10T08:08:51.799Z,69.83
2023-03-10T08:11:20.433Z,69.31
2023-03-10T08:13:49.094Z,69.65
2023-03-10T08:16:20.442Z,69.34
2023-03-10T08:18:49.329Z,66.59
2023-03-10T08:21:17.148Z,65.61
2023-03-10T08:23:44.794Z,65.39
2023-03-10T08:26:18.243Z,66.05
2023-03-10T08:28:46.205Z,67.38
2023-03-10T08:31:20.817Z,66.58
2023-03-10T08:33:49.463Z,66.28
2023-03-10T08:36:23.172Z,67.14
2023-03-10T08:38:52.839Z,66.16
2023-03-10T08:41:31.099Z,65.78
2023-03-10T08:44:00.090Z,66.28
2023-03-10T08:46:30.674Z,65.06
2023-03-10T08:48:59.208Z,64.98
2023-03-10T08:51:28.395Z,66.24
2023-03-10T08:53:56.570Z,64.76
2023-03-10T08:56:27.865Z,64.08
2023-03-10T08:59:00.800Z,61.65
2023-03-10T09:01:32.653Z,61.39
2023-03-10T09:04:01.411Z,62.90
2023-03-10T09:06:29.762Z,61.25
2023-03-10T09:09:01.618Z,61.53
2023-03-10T09:11:32.864Z,61.44
2023-03-10T09:14:02.030Z,60.33
2023-03-10T09:16:30.527Z,58.39
2023-03-10T09:19:00.230Z,56.47
2023-03-10T09:21:33.244Z,56.91
2023-03-10T09:24:02.596Z,59.29
2023-03-10T09:26:30.529Z,57.19
2023-03-10T09:28:58.168Z,56.83
2023-03-10T09:31:33.026Z,55.71
2023-03-10T09:34:01.613Z,54.21
2023-03-10T09:36:30.156Z,56.09
2023-03-10T09:38:59.266Z,54.78
2023-03-10T09:41:48.825Z,52.28
2023-03-10T09:44:26.576Z,50.43
2023-03-10T09:47:21.952Z,49.56
2023-03-10T09:49:58.694Z,49.52
2023-03-10T09:52:52.843Z,49.75
2023-03-10T09:55:31.382Z,48.41
2023-03-10T09:57:59.362Z,47.92
2023-03-10T10:00:42.003Z,47.53
2023-03-10T10:03:23.881Z,46.86
2023-03-10T10:05:54.257Z,47.96
2023-03-10T10:08:29.325Z,47.46
2023-03-10T10:11:00.284Z,47.54
2023-03-10T10:13:31.101Z,47.80
2023-03-10T10:16:24.396Z,46.79
2023-03-10T10:19:05.598Z,47.09
2023-03-10T10:21:43.733Z,48.58
2023-03-10T10:24:11.827Z,48.82
2023-03-10T10:26:39.469Z,49.35
2023-03-10T10:29:30.619Z,47.89
2023-03-10T10:32:12.527Z,47.40
2023-03-10T10:34:45.745Z,48.83
2023-03-10T10:37:37.211Z,47.73
2023-03-10T10:40:26.540Z,48.66
2023-03-10T10:42:57.202Z,48.92
2023-03-10T10:45:37.489Z,50.00
2023-03-10T10:48:06.229Z,49.57
2023-03-10T10:50:36.694Z,49.42
2023-03-10T10:53:26.689Z,48.66
2023-03-10T10:56:07.083Z,49.69
2023-03-10T10:58:38.672Z,48.03
2023-03-10T11:01:09.376Z,49.24
2023-03-10T11:03:51.376Z,48.52
2023-03-10T11:06:29.752Z,48.08
2023-03-10T11:09:15.802Z,48.56
2023-03-10T11:12:14.721Z,48.19
2023-03-10T11:15:07.035Z,47.52
2023-03-10T11:17:43.330Z,47.95
2023-03-10T11:20:29.104Z,49.24
2023-03-10T11:23:21.102Z,47.73
2023-03-10T11:26:09.580Z,50.62
2023-03-10T11:29:05.148Z,49.48
2023-03-10T11:32:00.202Z,48.77
2023-03-10T11:34:35.978Z,50.07
2023-03-10T11:37:30.125Z,47.57
2023-03-10T11:40:31.742Z,46.92
2023-03-10T11:43:19.073Z,47.66
2023-03-10T11:45:54.966Z,48.24
2023-03-10T11:48:43.646Z,47.54
2023-03-10T11:51:42.731Z,47.68
2023-03-10T11:54:33.352Z,48.19
2023-03-10T11:57:06.654Z,49.85
2023-03-10T11:59:37.265Z,50.95
2023-03-10T12:02:12.819Z,50.74
2023-03-10T12:05:02.516Z,50.54
2023-03-10T12:07:39.565Z,49.38
2023-03-10T12:10:12.967Z,50.56
2023-03-10T12:12:46.738Z,50.10
2023-03-10T12:15:22.667Z,49.72
2023-03-10T12:17:56.422Z,50.88
2023-03-10T12:20:30.845Z,50.33
2023-03-10T12:23:11.058Z,52.30
2023-03-10T12:25:38.655Z,53.78
2023-03-10T12:28:25.156Z,55.53
2023-03-10T12:31:38.012Z,56.53
2023-03-10T12:34:28.046Z,57.35
2023-03-10T12:37:22.923Z,61.07
2023-03-10T12:39:51.181Z,59.36
2023-03-10T12:42:39.778Z,63.34
2023-03-10T12:45:30.621Z,66.22
2023-03-10T12:48:11.990Z,66.90
2023-03-10T12:50:54.036Z,68.58
2023-03-10T12:54:21.387Z,69.29
2023-03-10T12:57:09.353Z,68.71
2023-03-10T12:59:51.749Z,68.39
2023-03-10T13:02:49.797Z,69.09
2023-03-10T13:05:33.087Z,71.22
2023-03-10T13:08:13.947Z,71.96
2023-03-10T13:10:43.258Z,73.68
2023-03-10T13:13:19.061Z,74.53
2023-03-10T13:16:00.721Z,73.40
2023-03-10T13:18:49.314Z,74.14
2023-03-10T13:21:35.554Z,73.75
2023-03-10T13:24:20.447Z,74.16
2023-03-10T13:26:48.236Z,74.54
2023-03-10T13:29:21.146Z,73.25
2023-03-10T13:31:56.559Z,74.08
2023-03-10T13:34:28.432Z,75.40
2023-03-10T13:37:07.358Z,77.26
2023-03-10T13:39:35.115Z,76.26
2023-03-10T13:42:45.313Z,76.77
2023-03-10T13:45:25.802Z,77.03
2023-03-10T13:47:56.055Z,78.14
2023-03-10T13:50:28.528Z,77.85
2023-03-10T13:52:59.795Z,77.75
2023-03-10T13:55:33.220Z,78.11
2023-03-10T13:58:02.259Z,78.58
2023-03-10T14:00:54.795Z,79.71
2023-03-10T14:03:23.083Z,80.75
2023-03-10T14:05:51.328Z,80.62
2023-03-10T14:08:31.259Z,80.88
2023-03-10T14:11:39.678Z,81.56
2023-03-10T14:14:09.721Z,81.06
2023-03-10T14:17:04.336Z,81.50
2023-03-10T14:19:43.723Z,80.94
2023-03-10T14:22:38.168Z,80.73
2023-03-10T14:25:14.571Z,80.12
2023-03-10T14:28:04.114Z,78.36
2023-03-10T14:30:34.486Z,78.73
2023-03-10T14:33:02.701Z,80.33
2023-03-10T14:35:31.597Z,81.48
2023-03-10T14:37:59.220Z,81.71
2023-03-10T14:40:27.469Z,82.04
2023-03-10T14:43:19.747Z,83.39
2023-03-10T14:45:50.593Z,84.04
2023-03-10T14:48:22.074Z,83.47
2023-03-10T14:50:50.907Z,82.61
2023-03-10T14:53:24.069Z,81.75
2023-03-10T14:55:56.370Z,81.64
2023-03-10T14:58:34.852Z,81.95
2023-03-10T15:01:07.273Z,81.67
2023-03-10T15:03:36.157Z,82.58
2023-03-10T15:06:04.964Z,82.77
2023-03-10T15:08:32.832Z,83.08
2023-03-10T15:11:01.969Z,83.44
2023-03-10T15:13:31.400Z,83.45
2023-03-10T15:15:59.583Z,82.65
2023-03-10T15:18:28.194Z,82.97
2023-03-10T15:21:01.633Z,82.95
2023-03-10T15:23:31.502Z,83.19
2023-03-10T15:25:59.726Z,83.63
2023-03-10T15:28:28.049Z,83.34
2023-03-10T15:30:55.905Z,82.97
2023-03-10T15:33:24.318Z,82.57
2023-03-10T15:35:53.417Z,83.30
2023-03-10T15:38:21.289Z,83.27
2023-03-10T15:40:49.000Z,82.43
2023-03-10T15:43:16.549Z,82.42
2023-03-10T15:45:52.135Z,82.01
2023-03-10T15:48:19.854Z,82.00
2023-03-10T15:50:49.949Z,81.45
2023-03-10T15:53:17.691Z,80.38
2023-03-10T15:55:45.433Z,80.41
2023-03-10T15:58:13.942Z,81.10
2023-03-10T16:00:43.932Z,81.32
2023-03-10T16:03:18.063Z,81.42
2023-03-10T16:05:49.463Z,80.75
2023-03-10T16:08:19.300Z,81.00
2023-03-10T16:10:55.595Z,81.11
2023-03-10T16:13:23.902Z,81.73
2023-03-10T16:15:52.803Z,82.18
2023-03-10T16:18:20.628Z,81.50
2023-03-10T16:20:58.709Z,81.34
2023-03-10T16:23:29.508Z,81.68
2023-03-10T16:26:16.780Z,81.52
2023-03-10T16:28:49.300Z,82.14
2023-03-10T16:31:20.090Z,81.98
2023-03-10T16:33:53.826Z,82.68
2023-03-10T16:36:26.296Z,82.19
2023-03-10T16:38:54.410Z,82.17
2023-03-10T16:41:23.308Z,81.74
2023-03-10T16:43:51.288Z,80.96
2023-03-10T16:46:25.615Z,81.63
2023-03-10T16:48:57.466Z,81.70
2023-03-10T16:51:38.036Z,81.87
2023-03-10T16:54:19.805Z,81.50
2023-03-10T16:56:51.625Z,80.70
2023-03-10T16:59:27.698Z,80.71
2023-03-10T17:01:58.491Z,80.26
2023-03-10T17:04:28.242Z,80.62
2023-03-10T17:06:58.392Z,80.42
2023-03-10T17:09:35.403Z,80.90
2023-03-10T17:12:05.959Z,80.58
2023-03-10T17:14:34.083Z,81.06
2023-03-10T17:17:02.742Z,80.94
2023-03-10T17:19:30.627Z,81.02
2023-03-10T17:22:01.689Z,80.87
2023-03-10T17:24:33.362Z,80.68
2023-03-10T17:27:03.530Z,81.22
2023-03-10T17:29:51.396Z,81.79
2023-03-10T17:32:22.037Z,81.46
2023-03-10T17:34:54.403Z,81.88
2023-03-10T17:37:23.015Z,82.30
2023-03-10T17:39:52.976Z,81.97
2023-03-10T17:42:22.534Z,81.94
2023-03-10T17:44:50.349Z,82.30
2023-03-10T17:47:24.607Z,82.48
2023-03-10T17:50:00.596Z,83.26
2023-03-10T17:52:35.624Z,83.84
2023-03-10T17:55:06.083Z,83.68
2023-03-10T17:57:36.512Z,82.74
2023-03-10T18:00:08.535Z,82.75
2023-03-10T18:02:41.690Z,82.82
2023-03-10T18:05:12.448Z,82.92
2023-03-10T18:07:41.547Z,83.97
2023-03-10T18:10:13.799Z,83.85
2023-03-10T18:12:46.293Z,84.24
2023-03-10T18:15:14.997Z,84.17
2023-03-10T18:17:42.918Z,84.48
2023-03-10T18:20:19.648Z,84.79
2023-03-10T18:22:53.980Z,85.10
2023-03-10T18:25:24.114Z,84.75
2023-03-10T18:27:51.796Z,84.71
2023-03-10T18:30:21.413Z,85.27
2023-03-10T18:32:54.885Z,85.28
2023-03-10T18:35:29.040Z,84.70
2023-03-10T18:37:59.884Z,84.82
2023-03-10T18:43:21.650Z,85.80
2023-03-10T18:45:51.073Z,86.36
2023-03-10T18:48:21.116Z,86.88
2023-03-10T18:50:51.844Z,87.33
2023-03-10T18:53:21.130Z,88.04
2023-03-10T18:55:49.614Z,87.38
2023-03-10T18:58:17.684Z,87.19
2023-03-10T19:00:51.972Z,87.47
2023-03-10T19:03:21.105Z,87.63
2023-03-10T19:05:57.290Z,88.02
2023-03-10T19:08:31.541Z,87.70
2023-03-10T19:11:26.682Z,86.43
2023-03-10T19:13:58.262Z,86.28
2023-03-10T19:16:26.923Z,86.74
2023-03-10T19:18:55.084Z,87.19
2023-03-10T19:21:23.290Z,87.19
2023-03-10T19:23:53.088Z,87.02
2023-03-10T19:26:21.948Z,87.18
2023-03-10T19:28:49.872Z,86.85
2023-03-10T19:31:21.336Z,87.41
2023-03-10T19:33:50.440Z,87.35
2023-03-10T19:36:18.118Z,87.84
2023-03-10T19:38:46.424Z,88.25
2023-03-10T19:41:17.698Z,87.94
2023-03-10T19:43:48.987Z,87.77
2023-03-10T19:46:23.081Z,87.11
2023-03-10T19:48:51.262Z,87.09
2023-03-10T19:51:51.559Z,87.97
2023-03-10T19:54:22.655Z,87.88
2023-03-10T19:56:52.643Z,88.32
2023-03-10T19:59:24.720Z,88.15
2023-03-10T20:01:52.406Z,88.68
2023-03-10T20:04:21.645Z,89.35
2023-03-10T20:06:51.302Z,88.60
2023-03-10T20:09:20.462Z,88.94
2023-03-10T20:11:48.115Z,89.09
2023-03-10T20:14:15.777Z,90.17
2023-03-10T20:16:45.070Z,88.90
2023-03-10T20:19:19.825Z,88.67
2023-03-10T20:21:49.073Z,89.52
2023-03-10T20:24:17.913Z,89.03
2023-03-10T20:26:47.344Z,89.06
2023-03-10T20:29:15.454Z,89.64
2023-03-10T20:31:51.099Z,90.41
2023-03-10T20:34:22.159Z,89.97
2023-03-10T20:36:52.134Z,90.61
2023-03-10T20:39:20.204Z,90.48
2023-03-10T20:41:48.027Z,91.71
2023-03-10T20:44:17.759Z,91.93
2023-03-10T20:46:46.997Z,90.95
2023-03-10T20:49:17.224Z,91.62
2023-03-10T20:51:49.204Z,90.53
2023-03-10T20:54:18.294Z,91.43
2023-03-10T20:56:50.810Z,91.72
2023-03-10T20:59:19.047Z,91.30
2023-03-10T21:01:48.270Z,91.25
2023-03-10T21:04:20.371Z,91.81
2023-03-10T21:06:49.680Z,92.42
2023-03-10T21:09:19.460Z,91.83
2023-03-10T21:11:56.069Z,91.46
2023-03-10T21:14:26.216Z,91.52
2023-03-10T21:16:56.370Z,91.43
2023-03-10T21:19:33.106Z,91.10
2023-03-10T21:22:03.281Z,91.95
2023-03-10T21:24:33.038Z,92.13
2023-03-10T21:27:01.315Z,92.27
2023-03-10T21:29:30.565Z,92.01
2023-03-10T21:32:02.454Z,92.28
2023-03-10T21:34:33.182Z,92.80
2023-03-10T21:37:01.090Z,93.46
2023-03-10T21:39:28.670Z,93.83
2023-03-10T21:41:56.802Z,93.49
2023-03-10T21:44:24.305Z,93.75
2023-03-10T21:46:53.342Z,93.49
2023-03-10T21:49:22.064Z,93.46
2023-03-10T21:51:49.714Z,93.98
2023-03-10T21:54:17.254Z,94.28
2023-03-10T21:56:45.116Z,94.01
2023-03-10T21:59:14.003Z,94.11
2023-03-10T22:01:43.319Z,93.65
2023-03-10T22:04:14.421Z,93.56
2023-03-10T22:06:42.073Z,92.83
2023-03-10T22:09:11.042Z,94.04
2023-03-10T22:11:41.800Z,94.67
2023-03-10T22:14:11.186Z,95.37
2023-03-10T22:16:38.743Z,95.37
2023-03-10T22:19:06.315Z,94.65
2023-03-10T22:21:33.779Z,95.35
2023-03-10T22:24:03.299Z,95.78
2023-03-10T22:26:30.785Z,95.96
2023-03-10T22:29:00.781Z,95.37
2023-03-10T22:31:28.912Z,95.34
2023-03-10T22:33:56.400Z,95.34
2023-03-10T22:36:25.367Z,94.57
2023-03-10T22:38:53.239Z,95.18
2023-03-10T22:41:20.686Z,95.86
2023-03-10T22:43:48.309Z,96.43
2023-03-10T22:46:18.404Z,96.48
2023-03-10T22:48:45.959Z,96.79
2023-03-10T22:51:17.477Z,96.14
2023-03-10T22:53:47.101Z,95.62
2023-03-10T22:56:14.675Z,94.63
2023-03-10T22:58:42.416Z,95.27
2023-03-10T23:01:10.414Z,96.07
2023-03-10T23:03:37.857Z,96.53
2023-03-10T23:06:07.399Z,96.44
2023-03-10T23:08:37.580Z,96.27
2023-03-10T23:11:11.610Z,97.47
2023-03-10T23:13:39.670Z,97.52
2023-03-10T23:16:07.732Z,97.99
2023-03-10T23:18:35.419Z,98.79
2023-03-10T23:21:04.310Z,99.35
2023-03-10T23:23:32.059Z,99.38
2023-03-10T23:25:59.944Z,100.00
2023-03-10T23:28:27.746Z,100.00
2023-03-10T23:30:55.764Z,100.00
2023-03-10T23:33:25.111Z,100.00
2023-03-10T23:35:54.447Z,100.00
2023-03-10T23:38:24.880Z,100.00
2023-03-10T23:40:53.672Z,100.00
2023-03-10T23:43:21.137Z,100.00
2023-03-10T23:45:48.654Z,100.00
2023-03-10T23:48:19.351Z,100.00
2023-03-10T23:50:48.778Z,100.00
2023-03-10T23:53:20.783Z,100.00
2023-03-10T23:55:49.041Z,100.00
2023-03-10T23:58:19.380Z,100.00
